Time;durP1;ratioP1;P1;durP2;ratioP2;P2;SDS_P1;SDS_P2;PMS_P1;PMS_P2;Temp;Humidity;BMP_temperature;BMP_pressure;BME280_temperature;BME280_humidity;BME280_pressure;Samples;Min_cycle;Max_cycle;Signal;HPM_P1;HPM_P2
2023/05/10 00:00:57;;;;;;;17.95;12.60;;;13.00;99.90;;;;;;7321732;32;20130;-55
2023/05/10 00:04:59;;;;;;;16.30;12.18;;;13.00;99.90;;;;;;7324681;32;20130;-55
2023/05/10 00:09:01;;;;;;;18.73;12.77;;;13.00;99.90;;;;;;7321770;32;20478;-54
2023/05/10 00:13:03;;;;;;;17.62;13.27;;;13.00;99.90;;;;;;7321399;32;21139;-54
2023/05/10 00:17:04;;;;;;;19.67;13.43;;;13.00;99.90;;;;;;7326156;32;20279;-56
2023/05/10 00:21:06;;;;;;;17.65;12.57;;;13.00;99.90;;;;;;7322928;32;20129;-56
2023/05/10 00:25:09;;;;;;;18.70;13.15;;;13.00;99.90;;;;;;7322450;32;20222;-57
2023/05/10 00:29:10;;;;;;;18.77;13.90;;;13.00;99.90;;;;;;7320703;32;20143;-56
2023/05/10 00:33:12;;;;;;;19.77;14.32;;;13.00;99.90;;;;;;7320217;32;20215;-56
2023/05/10 00:37:14;;;;;;;19.98;13.82;;;13.00;99.90;;;;;;7319367;32;20217;-56
2023/05/10 00:41:15;;;;;;;21.20;14.98;;;13.00;99.90;;;;;;7320789;32;22523;-58
2023/05/10 00:45:17;;;;;;;22.85;14.87;;;13.00;99.90;;;;;;7310328;32;21071;-57
2023/05/10 00:49:20;;;;;;;22.77;16.30;;;12.90;99.90;;;;;;7318981;32;20249;-56
2023/05/10 00:53:22;;;;;;;21.75;16.40;;;12.90;99.90;;;;;;7317589;32;20588;-56
2023/05/10 00:57:24;;;;;;;21.62;15.30;;;12.90;99.90;;;;;;7321106;32;20336;-57
2023/05/10 01:01:26;;;;;;;25.10;16.42;;;12.90;99.90;;;;;;7324142;32;20396;-59
2023/05/10 01:05:28;;;;;;;22.48;16.02;;;12.80;99.90;;;;;;7319813;32;20147;-58
2023/05/10 01:09:29;;;;;;;23.87;16.12;;;12.80;99.90;;;;;;7318858;32;20532;-56
2023/05/10 01:13:38;;;;;;;21.20;16.58;;;12.70;99.90;;;;;;7322315;32;20624;-57
2023/05/10 01:17:42;;;;;;;21.48;16.33;;;12.80;99.90;;;;;;7315760;32;20549;-57
2023/05/10 01:22:13;;;;;;;20.23;15.23;;;12.70;99.90;;;;;;7327038;32;20233;-57
2023/05/10 01:26:50;;;;;;;20.37;15.70;;;12.80;99.90;;;;;;7324188;32;20233;-57
2023/05/10 01:31:14;;;;;;;21.30;14.60;;;12.70;99.90;;;;;;7305066;32;20109;-57
2023/05/10 01:35:28;;;;;;;20.62;14.85;;;12.80;99.90;;;;;;7328081;32;20363;-58
2023/05/10 01:39:59;;;;;;;20.58;15.07;;;12.70;99.90;;;;;;7331533;32;20224;-57
2023/05/10 01:44:15;;;;;;;21.80;15.05;;;12.70;99.90;;;;;;7301436;32;20127;-57
2023/05/10 01:48:19;;;;;;;23.08;15.43;;;12.60;99.90;;;;;;7324491;32;20190;-57
2023/05/10 01:52:32;;;;;;;22.48;16.00;;;12.60;99.90;;;;;;7325607;32;20125;-57
2023/05/10 01:56:37;;;;;;;22.13;17.12;;;12.60;99.90;;;;;;7326613;32;20563;-59
2023/05/10 02:00:42;;;;;;;24.80;17.10;;;12.60;99.90;;;;;;7326391;32;20138;-57
2023/05/10 02:04:46;;;;;;;27.13;17.30;;;12.70;99.90;;;;;;7326387;32;20280;-57
2023/05/10 02:08:50;;;;;;;20.88;15.93;;;12.60;99.90;;;;;;7325367;32;20195;-56
2023/05/10 02:12:53;;;;;;;21.48;15.00;;;12.60;99.90;;;;;;7328576;32;20202;-57
2023/05/10 02:16:56;;;;;;;22.17;15.27;;;12.60;99.90;;;;;;7317972;32;20805;-58
2023/05/10 02:21:00;;;;;;;20.33;15.00;;;12.60;99.90;;;;;;7328838;32;20211;-58
2023/05/10 02:25:03;;;;;;;20.12;15.35;;;12.60;99.90;;;;;;7327236;32;20133;-56
2023/05/10 02:29:07;;;;;;;22.00;15.40;;;12.50;99.90;;;;;;7322030;32;20276;-58
2023/05/10 02:33:10;;;;;;;20.10;14.23;;;12.60;99.90;;;;;;7326626;32;20198;-57
2023/05/10 02:37:15;;;;;;;20.67;13.52;;;12.60;99.90;;;;;;7327594;32;20256;-56
2023/05/10 02:41:19;;;;;;;21.33;13.88;;;12.60;99.90;;;;;;7323912;32;20189;-59
2023/05/10 02:45:24;;;;;;;18.62;13.25;;;12.60;99.90;;;;;;7319957;32;20677;-57
2023/05/10 02:49:26;;;;;;;18.27;13.62;;;12.50;99.90;;;;;;7327084;32;20231;-57
2023/05/10 02:53:32;;;;;;;21.80;14.60;;;12.50;99.90;;;;;;7324395;32;20100;-56
2023/05/10 02:57:38;;;;;;;23.70;14.60;;;12.60;99.90;;;;;;7328712;32;20171;-56
2023/05/10 03:01:40;;;;;;;20.17;14.35;;;12.60;99.90;;;;;;7325386;32;20148;-57
2023/05/10 03:05:42;;;;;;;23.40;13.60;;;12.60;99.90;;;;;;7322154;32;20360;-57
2023/05/10 03:09:43;;;;;;;22.30;14.32;;;12.60;99.90;;;;;;7324611;32;20249;-56
2023/05/10 03:14:19;;;;;;;19.98;13.93;;;12.60;99.90;;;;;;7321892;32;20203;-57
2023/05/10 03:18:47;;;;;;;21.55;15.23;;;12.60;99.90;;;;;;7322003;32;20183;-57
2023/05/10 03:22:55;;;;;;;22.92;15.05;;;12.60;99.90;;;;;;7320068;32;20210;-56
2023/05/10 03:27:02;;;;;;;21.20;14.80;;;12.60;99.90;;;;;;7324306;32;20133;-57
2023/05/10 03:31:05;;;;;;;24.45;15.40;;;12.60;99.90;;;;;;7319959;32;20229;-56
2023/05/10 03:35:12;;;;;;;22.75;14.32;;;12.50;99.90;;;;;;7322662;32;20212;-56
2023/05/10 03:39:13;;;;;;;21.80;14.43;;;12.50;99.90;;;;;;7326526;32;20654;-58
2023/05/10 03:43:15;;;;;;;20.17;14.43;;;12.60;99.90;;;;;;7323864;32;20225;-57
2023/05/10 03:47:17;;;;;;;22.10;15.25;;;12.60;99.90;;;;;;7329804;32;20138;-57
2023/05/10 03:51:18;;;;;;;20.35;13.98;;;12.60;99.90;;;;;;7325708;32;20580;-56
2023/05/10 03:55:20;;;;;;;23.00;14.15;;;12.60;99.90;;;;;;7322579;32;20225;-56
2023/05/10 03:59:22;;;;;;;23.55;14.50;;;12.60;99.90;;;;;;7329775;32;20237;-56
2023/05/10 04:03:25;;;;;;;23.30;14.40;;;12.70;99.90;;;;;;7324447;32;20200;-57
2023/05/10 04:07:27;;;;;;;24.08;16.12;;;12.70;99.90;;;;;;7316288;32;20785;-57
2023/05/10 04:11:29;;;;;;;25.70;17.23;;;12.80;99.90;;;;;;7321077;32;20218;-56
2023/05/10 04:15:30;;;;;;;26.67;15.85;;;12.70;99.90;;;;;;7322167;32;20237;-56
2023/05/10 04:19:32;;;;;;;24.02;15.45;;;12.80;99.90;;;;;;7317712;32;20345;-56
2023/05/10 04:23:34;;;;;;;27.75;17.20;;;12.80;99.90;;;;;;7321247;32;20494;-57
2023/05/10 04:27:36;;;;;;;28.50;16.92;;;12.80;99.90;;;;;;7319599;32;20119;-57
2023/05/10 04:31:38;;;;;;;29.35;17.92;;;12.80;99.90;;;;;;7325474;32;20626;-56
2023/05/10 04:35:39;;;;;;;30.23;19.37;;;12.80;99.90;;;;;;7322506;32;20373;-56
2023/05/10 04:39:41;;;;;;;30.45;18.00;;;12.90;99.90;;;;;;7323117;32;20653;-56
2023/05/10 04:43:43;;;;;;;30.85;19.33;;;12.90;99.90;;;;;;7316171;32;20111;-56
2023/05/10 04:47:45;;;;;;;32.40;19.60;;;13.00;99.90;;;;;;7310159;32;20323;-58
2023/05/10 04:51:46;;;;;;;34.42;20.40;;;13.00;99.90;;;;;;7320629;32;20518;-58
2023/05/10 04:55:48;;;;;;;37.05;20.27;;;12.90;99.90;;;;;;7310009;32;20203;-58
2023/05/10 04:59:51;;;;;;;32.95;19.37;;;13.00;99.90;;;;;;7328005;32;20141;-57
2023/05/10 05:03:52;;;;;;;31.77;20.35;;;13.00;99.90;;;;;;7331155;32;20103;-57
2023/05/10 05:07:54;;;;;;;31.08;20.58;;;13.00;99.90;;;;;;7321828;32;20384;-57
2023/05/10 05:11:56;;;;;;;32.58;21.25;;;13.10;99.90;;;;;;7329919;32;20182;-57
2023/05/10 05:16:03;;;;;;;35.53;22.75;;;13.00;99.90;;;;;;7326861;32;20131;-57
2023/05/10 05:20:05;;;;;;;34.83;22.80;;;13.10;99.90;;;;;;7327365;32;20154;-56
2023/05/10 05:24:07;;;;;;;34.90;23.62;;;13.10;99.90;;;;;;7330293;32;20153;-57
2023/05/10 05:28:09;;;;;;;36.70;24.17;;;13.10;99.90;;;;;;7296587;32;20230;-57
2023/05/10 05:32:11;;;;;;;42.53;26.17;;;13.10;99.90;;;;;;7326059;32;20233;-57
2023/05/10 05:36:14;;;;;;;38.95;25.17;;;13.10;99.90;;;;;;7326396;32;20256;-57
2023/05/10 05:40:15;;;;;;;45.33;25.00;;;13.20;99.90;;;;;;7330736;32;20361;-56
2023/05/10 05:44:17;;;;;;;40.40;25.65;;;13.20;99.90;;;;;;7306312;32;20130;-57
2023/05/10 05:48:19;;;;;;;41.47;25.12;;;13.20;99.90;;;;;;7327101;32;20112;-57
2023/05/10 05:52:21;;;;;;;41.17;24.63;;;13.20;99.90;;;;;;7326969;32;20134;-57
2023/05/10 05:56:24;;;;;;;37.50;24.02;;;13.20;99.90;;;;;;7326381;32;20293;-57
2023/05/10 06:00:26;;;;;;;35.80;22.00;;;13.20;99.90;;;;;;7328023;32;20575;-58
2023/05/10 06:04:28;;;;;;;33.00;22.87;;;13.20;99.90;;;;;;7330266;32;20191;-57
2023/05/10 06:08:30;;;;;;;37.17;23.42;;;13.20;99.90;;;;;;7329685;32;20610;-57
2023/05/10 06:12:31;;;;;;;32.08;20.95;;;13.20;99.90;;;;;;7317882;32;20150;-58
2023/05/10 06:16:34;;;;;;;29.10;19.77;;;13.20;99.90;;;;;;7322366;32;20253;-57
2023/05/10 06:20:36;;;;;;;26.40;19.10;;;13.30;99.90;;;;;;7317510;32;20233;-58
2023/05/10 06:24:38;;;;;;;32.67;19.60;;;13.20;99.90;;;;;;7330890;32;20266;-58
2023/05/10 06:28:40;;;;;;;36.15;21.92;;;13.20;99.90;;;;;;7304463;32;20271;-57
2023/05/10 06:32:43;;;;;;;36.72;22.35;;;13.10;99.90;;;;;;7300543;32;20108;-57
2023/05/10 06:36:45;;;;;;;37.55;22.83;;;13.20;99.90;;;;;;7335347;32;20115;-58
2023/05/10 06:40:47;;;;;;;32.10;20.83;;;13.20;99.90;;;;;;7313737;32;20562;-57
2023/05/10 06:44:49;;;;;;;31.50;20.60;;;13.20;99.90;;;;;;7332267;32;20218;-58
2023/05/10 06:48:50;;;;;;;31.90;21.85;;;13.20;99.90;;;;;;7319290;32;20277;-58
2023/05/10 06:52:52;;;;;;;40.63;23.55;;;13.20;99.90;;;;;;7314913;32;20741;-58
2023/05/10 06:56:54;;;;;;;39.40;24.33;;;13.20;99.90;;;;;;7316718;32;20307;-57
2023/05/10 07:01:02;;;;;;;40.30;24.73;;;13.20;99.90;;;;;;7327624;32;20214;-58
2023/05/10 07:05:04;;;;;;;45.95;25.33;;;13.10;99.90;;;;;;7320208;32;20107;-57
2023/05/10 07:09:07;;;;;;;44.42;25.20;;;13.10;99.90;;;;;;7312885;32;20149;-58
2023/05/10 07:13:10;;;;;;;48.60;26.23;;;13.10;99.90;;;;;;7311460;32;20225;-57
2023/05/10 07:17:12;;;;;;;45.55;25.50;;;13.10;99.90;;;;;;7320325;32;20514;-58
2023/05/10 07:21:14;;;;;;;45.30;24.23;;;13.10;99.90;;;;;;7332937;32;20527;-57
2023/05/10 07:25:15;;;;;;;41.03;23.38;;;13.10;99.90;;;;;;7328744;32;20129;-58
2023/05/10 07:29:18;;;;;;;38.85;22.65;;;13.00;99.90;;;;;;7303208;32;20454;-58
2023/05/10 07:33:19;;;;;;;40.22;22.10;;;13.10;99.90;;;;;;7310902;32;20111;-58
2023/05/10 07:37:21;;;;;;;41.37;22.05;;;13.10;99.90;;;;;;7315066;32;20180;-57
2023/05/10 07:41:23;;;;;;;41.47;21.70;;;13.10;99.90;;;;;;7314481;32;20470;-57
2023/05/10 07:45:25;;;;;;;38.05;22.20;;;13.10;99.90;;;;;;7318570;32;20209;-58
2023/05/10 07:49:27;;;;;;;35.97;21.00;;;13.20;99.90;;;;;;7317112;32;20595;-57
2023/05/10 07:53:29;;;;;;;35.60;21.15;;;13.40;99.90;;;;;;7307747;32;20179;-58
2023/05/10 07:57:30;;;;;;;37.90;21.70;;;13.50;99.90;;;;;;7328813;32;20212;-57
2023/05/10 08:01:34;;;;;;;35.83;20.08;;;13.50;99.90;;;;;;7314050;32;20161;-58
2023/05/10 08:05:35;;;;;;;34.25;20.65;;;13.70;99.90;;;;;;7316675;32;20497;-58
2023/05/10 08:09:37;;;;;;;32.67;19.70;;;13.80;99.90;;;;;;7315935;32;20164;-58
2023/05/10 08:13:39;;;;;;;31.17;17.73;;;14.00;99.90;;;;;;7329998;32;20308;-58
2023/05/10 08:17:41;;;;;;;32.92;19.67;;;13.90;99.90;;;;;;7311252;32;20176;-57
2023/05/10 08:21:43;;;;;;;34.35;20.45;;;13.90;99.90;;;;;;7330240;32;20194;-58
2023/05/10 08:25:45;;;;;;;44.33;23.05;;;13.90;99.90;;;;;;7312315;32;20198;-58
2023/05/10 08:29:46;;;;;;;43.05;23.52;;;13.90;99.90;;;;;;7329715;32;20916;-58
2023/05/10 08:33:52;;;;;;;45.28;25.00;;;14.00;99.90;;;;;;7311100;32;20633;-58
2023/05/10 08:37:59;;;;;;;46.58;25.08;;;14.20;99.90;;;;;;7322512;32;20564;-58
2023/05/10 08:42:03;;;;;;;46.80;27.35;;;14.20;99.90;;;;;;7315496;32;20223;-57
2023/05/10 08:46:07;;;;;;;47.08;26.58;;;14.30;99.90;;;;;;7328963;32;20125;-58
2023/05/10 08:50:10;;;;;;;50.88;28.00;;;14.20;99.90;;;;;;7320730;32;20135;-58
2023/05/10 08:54:12;;;;;;;46.33;27.98;;;14.20;99.90;;;;;;7314511;32;20494;-58
2023/05/10 08:58:14;;;;;;;46.22;26.23;;;14.20;99.90;;;;;;7314482;32;20131;-57
2023/05/10 09:02:18;;;;;;;46.25;27.33;;;14.30;99.90;;;;;;7300994;32;20503;-58
2023/05/10 09:06:19;;;;;;;49.17;27.02;;;14.30;99.90;;;;;;7306861;32;20238;-58
2023/05/10 09:10:22;;;;;;;48.25;27.50;;;14.30;99.90;;;;;;7316030;32;20116;-58
2023/05/10 09:14:25;;;;;;;46.90;27.27;;;14.40;99.90;;;;;;7314861;32;20518;-58
2023/05/10 09:18:27;;;;;;;50.00;27.13;;;14.10;99.90;;;;;;7327077;32;20262;-58
2023/05/10 09:22:30;;;;;;;45.05;26.85;;;14.00;99.90;;;;;;7316152;32;20112;-58
2023/05/10 09:26:32;;;;;;;43.15;26.33;;;13.90;99.90;;;;;;7306238;32;20131;-58
2023/05/10 09:30:34;;;;;;;42.13;24.73;;;13.90;99.90;;;;;;7313207;32;20210;-58
2023/05/10 09:34:39;;;;;;;42.88;24.42;;;14.00;99.90;;;;;;7328068;32;20183;-58
2023/05/10 09:38:51;;;;;;;34.45;22.52;;;14.20;99.90;;;;;;7329465;32;20516;-58
2023/05/10 09:43:02;;;;;;;35.20;21.87;;;14.40;99.90;;;;;;7323309;32;20142;-58
2023/05/10 09:47:04;;;;;;;28.38;18.80;;;14.60;99.90;;;;;;7321155;32;20243;-58
2023/05/10 09:51:06;;;;;;;28.62;17.52;;;14.50;99.90;;;;;;7303666;32;20191;-58
2023/05/10 09:55:08;;;;;;;23.20;15.50;;;14.40;99.90;;;;;;7312421;32;20162;-58
2023/05/10 09:59:11;;;;;;;18.25;13.40;;;14.40;99.90;;;;;;7314253;32;20531;-58
2023/05/10 10:03:15;;;;;;;21.12;14.20;;;14.50;99.90;;;;;;7314067;32;20431;-58
2023/05/10 10:07:23;;;;;;;20.02;14.13;;;14.70;99.90;;;;;;7336858;32;20229;-58
2023/05/10 10:11:25;;;;;;;17.25;13.02;;;14.80;99.90;;;;;;7304068;32;20107;-58
2023/05/10 10:15:27;;;;;;;20.40;13.93;;;14.90;99.90;;;;;;7318160;32;20222;-58
2023/05/10 10:19:30;;;;;;;19.67;13.65;;;15.00;99.90;;;;;;7332309;32;20131;-58
2023/05/10 10:23:32;;;;;;;22.35;15.52;;;15.10;99.90;;;;;;7306945;32;20550;-58
2023/05/10 10:27:51;;;;;;;23.75;15.45;;;14.70;99.90;;;;;;7331133;32;20130;-58
2023/05/10 10:32:29;;;;;;;27.98;16.60;;;14.60;99.90;;;;;;7332913;32;20135;-58
2023/05/10 10:36:33;;;;;;;;;;;14.60;99.90;;;;;;7290045;32;20137;-58
2023/05/10 10:40:35;;;;;;;23.67;16.52;;;14.60;99.90;;;;;;7328749;32;20810;-57
2023/05/10 10:44:38;;;;;;;22.48;14.77;;;14.40;99.90;;;;;;7337306;32;20250;-58
2023/05/10 10:49:09;;;;;;;25.60;15.13;;;14.50;99.90;;;;;;7307138;32;20148;-58
2023/05/10 10:53:11;;;;;;;22.67;14.98;;;14.30;99.90;;;;;;7326587;32;20129;-58
2023/05/10 10:57:14;;;;;;;22.73;15.00;;;14.30;99.90;;;;;;7340483;32;20135;-58
2023/05/10 11:01:18;;;;;;;22.73;15.00;;;14.30;99.90;;;;;;7335546;32;20242;-58
2023/05/10 11:05:40;;;;;;;21.80;14.80;;;14.50;99.90;;;;;;7333218;32;20208;-58
2023/05/10 11:09:42;;;;;;;20.50;14.63;;;14.60;99.90;;;;;;7317776;32;20592;-58
2023/05/10 11:13:46;;;;;;;19.48;13.60;;;14.70;99.90;;;;;;7309667;32;20558;-57
2023/05/10 11:17:52;;;;;;;17.35;12.73;;;14.70;99.90;;;;;;7332636;32;20160;-58
2023/05/10 11:22:06;;;;;;;22.05;13.30;;;14.90;99.90;;;;;;7337730;32;20563;-58
2023/05/10 11:26:11;;;;;;;23.23;12.27;;;14.90;99.90;;;;;;7340386;32;20124;-57
2023/05/10 11:30:14;;;;;;;18.75;13.15;;;14.70;99.90;;;;;;7310989;32;20127;-59
2023/05/10 11:34:31;;;;;;;20.05;12.82;;;14.70;99.90;;;;;;7321425;32;20506;-58
2023/05/10 11:38:33;;;;;;;22.20;13.98;;;14.80;99.90;;;;;;7338315;32;20507;-57
2023/05/10 11:42:37;;;;;;;21.42;14.68;;;15.00;99.90;;;;;;7338915;32;20103;-57
2023/05/10 11:46:39;;;;;;;22.25;14.85;;;15.10;99.90;;;;;;7328232;32;20613;-57
2023/05/10 11:50:43;;;;;;;28.02;16.70;;;15.10;99.90;;;;;;7331115;32;20713;-57
2023/05/10 11:54:51;;;;;;;24.48;17.77;;;15.00;99.90;;;;;;7332267;32;20108;-57
2023/05/10 11:58:55;;;;;;;22.80;17.80;;;15.10;99.90;;;;;;7312555;32;20137;-57
2023/05/10 12:02:57;;;;;;;20.05;15.38;;;15.20;99.90;;;;;;7315439;32;20137;-57
2023/05/10 12:06:59;;;;;;;23.83;16.83;;;15.20;99.90;;;;;;7332826;32;20257;-58
2023/05/10 12:11:07;;;;;;;20.20;15.18;;;15.40;99.90;;;;;;7297117;32;20844;-57
2023/05/10 12:15:20;;;;;;;19.40;14.00;;;15.30;99.90;;;;;;7302955;32;20095;-57
2023/05/10 12:19:22;;;;;;;16.83;13.30;;;15.50;99.90;;;;;;7307211;32;20249;-57
2023/05/10 12:23:26;;;;;;;16.48;13.10;;;15.70;99.90;;;;;;7339440;32;20107;-57
2023/05/10 12:27:39;;;;;;;17.23;13.73;;;15.90;99.90;;;;;;7320450;32;20254;-57
2023/05/10 12:31:52;;;;;;;14.57;12.02;;;16.00;99.90;;;;;;7333851;32;20241;-57
2023/05/10 12:35:54;;;;;;;15.07;12.20;;;16.10;99.90;;;;;;7332292;32;20130;-57
2023/05/10 12:39:56;;;;;;;11.65;9.95;;;16.20;99.90;;;;;;7329807;32;20111;-57
2023/05/10 12:43:58;;;;;;;11.98;9.57;;;16.20;99.90;;;;;;7330270;32;20252;-57
2023/05/10 12:47:59;;;;;;;12.20;10.10;;;16.30;99.90;;;;;;7332601;32;20107;-57
2023/05/10 12:52:01;;;;;;;16.95;11.85;;;16.50;99.90;;;;;;7337230;32;20111;-57
2023/05/10 12:56:03;;;;;;;16.83;10.88;;;16.30;99.90;;;;;;7327061;32;20103;-57
2023/05/10 13:00:06;;;;;;;15.65;12.57;;;16.40;99.90;;;;;;7325868;32;20225;-57
2023/05/10 13:04:08;;;;;;;15.05;10.80;;;16.50;99.90;;;;;;7325175;32;20678;-57
2023/05/10 13:08:10;;;;;;;15.75;11.68;;;16.70;99.90;;;;;;7326717;32;20154;-57
2023/05/10 13:12:12;;;;;;;15.18;12.30;;;17.00;99.90;;;;;;7323862;32;20312;-57
2023/05/10 13:16:13;;;;;;;14.00;11.55;;;17.00;99.90;;;;;;7308535;32;20135;-57
2023/05/10 13:20:15;;;;;;;14.15;12.10;;;17.20;99.90;;;;;;7331914;32;20256;-57
2023/05/10 13:24:18;;;;;;;18.23;12.57;;;17.40;99.90;;;;;;7331292;32;20210;-57
2023/05/10 13:28:19;;;;;;;16.83;13.43;;;17.30;99.90;;;;;;7335293;32;20204;-57
2023/05/10 13:32:21;;;;;;;17.80;13.98;;;17.50;99.90;;;;;;7335461;32;20210;-57
2023/05/10 13:36:23;;;;;;;16.33;13.82;;;17.50;99.90;;;;;;7333232;32;20170;-57
2023/05/10 13:40:25;;;;;;;18.23;13.80;;;17.20;99.90;;;;;;7341833;32;20167;-55
2023/05/10 13:44:26;;;;;;;15.48;11.98;;;17.50;99.90;;;;;;7340899;32;20135;-57
2023/05/10 13:48:28;;;;;;;16.87;13.77;;;17.50;99.90;;;;;;7333842;32;20341;-58
2023/05/10 13:52:30;;;;;;;17.05;13.10;;;17.60;99.90;;;;;;7330045;32;20128;-58
2023/05/10 13:56:32;;;;;;;18.65;13.68;;;17.80;99.90;;;;;;7326776;32;20254;-57
2023/05/10 14:00:34;;;;;;;17.70;14.00;;;17.70;99.90;;;;;;7333093;32;20111;-57
2023/05/10 14:04:36;;;;;;;17.98;13.90;;;17.70;99.90;;;;;;7335342;32;20119;-58
2023/05/10 14:08:37;;;;;;;16.73;13.02;;;17.80;99.90;;;;;;7314659;32;20179;-58
2023/05/10 14:12:39;;;;;;;18.75;14.27;;;17.80;99.90;;;;;;7327756;32;21696;-58
2023/05/10 14:16:44;;;;;;;21.80;16.37;;;17.80;99.90;;;;;;7343039;32;20508;-58
2023/05/10 14:20:46;;;;;;;19.27;15.52;;;17.80;99.90;;;;;;7326072;32;20107;-58
2023/05/10 14:24:48;;;;;;;17.65;14.95;;;17.60;99.90;;;;;;7327693;32;20225;-58
2023/05/10 14:28:51;;;;;;;18.77;14.50;;;17.70;99.90;;;;;;7327309;32;20302;-58
2023/05/10 14:32:53;;;;;;;20.08;15.30;;;18.10;99.90;;;;;;7327608;32;20135;-58
2023/05/10 14:36:55;;;;;;;18.40;14.52;;;18.40;99.90;;;;;;7311539;32;20486;-59
2023/05/10 14:40:57;;;;;;;17.77;13.38;;;18.50;99.90;;;;;;7331816;32;20195;-58
2023/05/10 14:44:59;;;;;;;15.52;12.88;;;18.40;99.90;;;;;;7310788;32;20154;-58
2023/05/10 14:49:01;;;;;;;14.00;12.32;;;19.10;99.90;;;;;;7323115;32;20533;-58
2023/05/10 14:53:03;;;;;;;13.07;11.25;;;19.30;99.90;;;;;;7316057;32;20195;-58
2023/05/10 14:57:05;;;;;;;15.77;11.73;;;19.80;99.90;;;;;;7313686;32;20158;-58
2023/05/10 15:01:07;;;;;;;15.43;13.20;;;19.30;99.90;;;;;;7313406;32;20172;-58
2023/05/10 15:05:09;;;;;;;17.05;12.77;;;18.80;99.90;;;;;;7315585;32;20138;-57
2023/05/10 15:09:11;;;;;;;18.40;13.65;;;18.30;99.90;;;;;;7333720;32;21733;-57
2023/05/10 15:13:12;;;;;;;16.50;13.13;;;17.90;99.90;;;;;;7332046;32;20133;-57
2023/05/10 15:17:14;;;;;;;15.73;13.32;;;17.60;99.90;;;;;;7333145;32;20141;-58
2023/05/10 15:21:16;;;;;;;15.98;12.30;;;17.40;99.90;;;;;;7330336;32;20104;-58
2023/05/10 15:25:17;;;;;;;12.20;10.10;;;17.20;99.90;;;;;;7332118;32;20168;-58
2023/05/10 15:29:20;;;;;;;11.50;9.40;;;17.40;99.90;;;;;;7314686;32;20116;-57
2023/05/10 15:33:22;;;;;;;13.45;10.32;;;17.50;99.90;;;;;;7329946;32;20469;-57
2023/05/10 15:37:24;;;;;;;11.20;9.00;;;17.80;99.90;;;;;;7305390;32;20262;-57
2023/05/10 15:41:26;;;;;;;10.73;8.18;;;17.90;99.90;;;;;;7315874;32;20116;-57
2023/05/10 15:45:28;;;;;;;10.73;8.70;;;18.40;99.90;;;;;;7325634;32;20211;-58
2023/05/10 15:49:30;;;;;;;10.80;8.32;;;18.50;99.90;;;;;;7315668;32;20127;-57
2023/05/10 15:53:31;;;;;;;9.85;8.02;;;18.20;99.90;;;;;;7324804;32;20103;-58
2023/05/10 15:57:33;;;;;;;8.82;6.60;;;18.00;99.90;;;;;;7312417;32;20254;-58
2023/05/10 16:01:37;;;;;;;11.50;7.37;;;17.80;99.90;;;;;;7318493;32;20103;-58
2023/05/10 16:05:39;;;;;;;8.38;6.90;;;17.40;99.90;;;;;;7337782;32;20143;-57
2023/05/10 16:09:40;;;;;;;7.95;6.55;;;17.10;99.90;;;;;;7331406;32;20210;-57
2023/05/10 16:13:42;;;;;;;7.22;5.35;;;16.80;99.90;;;;;;7327222;32;20179;-57
2023/05/10 16:17:44;;;;;;;6.45;4.18;;;16.40;99.90;;;;;;7323822;32;20107;-57
2023/05/10 16:21:46;;;;;;;6.55;3.00;;;16.00;99.90;;;;;;7328044;32;20474;-58
2023/05/10 16:25:48;;;;;;;5.05;2.30;;;15.80;99.90;;;;;;7329606;32;20310;-58
2023/05/10 16:29:49;;;;;;;4.45;2.40;;;15.70;99.90;;;;;;7328530;32;20664;-57
2023/05/10 16:33:51;;;;;;;3.28;2.00;;;15.40;99.90;;;;;;7325009;32;20206;-58
2023/05/10 16:37:53;;;;;;;4.53;1.85;;;15.50;99.90;;;;;;7327765;32;20149;-57
2023/05/10 16:41:54;;;;;;;3.12;1.55;;;15.30;99.90;;;;;;7320438;32;20582;-58
2023/05/10 16:45:56;;;;;;;4.03;1.35;;;15.20;99.90;;;;;;7325578;32;20134;-58
2023/05/10 16:50:00;;;;;;;2.85;1.62;;;15.00;99.90;;;;;;7325465;32;20210;-58
2023/05/10 16:54:02;;;;;;;1.98;1.20;;;14.90;99.90;;;;;;7320368;32;20108;-57
2023/05/10 16:58:04;;;;;;;3.17;1.00;;;14.80;99.90;;;;;;7324823;32;20123;-58
2023/05/10 17:02:06;;;;;;;3.75;0.90;;;14.80;99.90;;;;;;7321342;32;20104;-59
2023/05/10 17:06:08;;;;;;;3.45;0.88;;;14.80;99.90;;;;;;7324029;32;20631;-57
2023/05/10 17:10:10;;;;;;;1.73;0.90;;;14.80;99.90;;;;;;7319778;32;20166;-57
2023/05/10 17:14:12;;;;;;;2.35;1.00;;;14.90;99.90;;;;;;7321745;32;20137;-56
2023/05/10 17:18:13;;;;;;;1.95;1.40;;;14.80;99.90;;;;;;7321188;32;20334;-56
2023/05/10 17:22:15;;;;;;;2.22;1.70;;;14.80;99.90;;;;;;7325785;32;20601;-57
2023/05/10 17:26:17;;;;;;;3.15;1.60;;;14.70;99.90;;;;;;7324323;32;20587;-57
2023/05/10 17:30:24;;;;;;;5.10;1.92;;;14.60;99.90;;;;;;7324911;32;20160;-59
2023/05/10 17:34:26;;;;;;;;;;;14.60;99.90;;;;;;7320909;32;20157;-57
2023/05/10 17:38:28;;;;;;;4.62;2.20;;;14.70;99.90;;;;;;7321247;32;20862;-57
2023/05/10 17:42:29;;;;;;;7.18;3.40;;;14.90;99.90;;;;;;7322475;32;20169;-57
2023/05/10 17:46:31;;;;;;;7.95;3.92;;;15.00;99.90;;;;;;7320047;32;20529;-58
2023/05/10 17:50:34;;;;;;;6.00;4.32;;;15.00;99.90;;;;;;7327330;32;20298;-57
2023/05/10 17:54:35;;;;;;;5.70;3.42;;;15.00;99.90;;;;;;7320857;32;20581;-58
2023/05/10 17:58:37;;;;;;;4.95;3.35;;;15.10;99.90;;;;;;7326482;32;20108;-56
2023/05/10 18:02:39;;;;;;;3.75;2.72;;;15.10;99.90;;;;;;7321778;32;20214;-56
2023/05/10 18:06:40;;;;;;;3.78;2.15;;;15.10;99.90;;;;;;7324554;32;22301;-57
2023/05/10 18:10:42;;;;;;;3.90;2.00;;;15.00;99.90;;;;;;7316007;32;20149;-56
2023/05/10 18:14:44;;;;;;;2.75;1.92;;;15.10;99.90;;;;;;7320977;32;20229;-56
2023/05/10 18:18:46;;;;;;;4.30;3.20;;;15.00;99.90;;;;;;7330694;32;20145;-57
2023/05/10 18:22:48;;;;;;;4.62;3.72;;;14.90;99.90;;;;;;7327937;32;20138;-57
2023/05/10 18:26:50;;;;;;;5.30;3.20;;;14.70;99.90;;;;;;7323550;32;20163;-56
2023/05/10 18:30:51;;;;;;;4.30;3.25;;;14.50;99.90;;;;;;7328016;32;20143;-57
2023/05/10 18:34:53;;;;;;;4.72;3.67;;;14.30;99.90;;;;;;7322492;32;20162;-56
2023/05/10 18:38:56;;;;;;;3.90;3.42;;;14.20;99.90;;;;;;7323552;32;20311;-56
2023/05/10 18:42:58;;;;;;;5.28;3.72;;;14.20;99.90;;;;;;7326074;32;20275;-58
2023/05/10 18:47:00;;;;;;;6.43;4.93;;;14.10;99.90;;;;;;7322771;32;20143;-58
2023/05/10 18:51:02;;;;;;;6.40;4.87;;;13.90;99.90;;;;;;7324766;32;20533;-56
2023/05/10 18:55:04;;;;;;;6.35;4.68;;;13.90;99.90;;;;;;7318265;32;20104;-56
2023/05/10 18:59:06;;;;;;;7.53;5.53;;;13.70;99.90;;;;;;7336681;32;20134;-56
2023/05/10 19:03:08;;;;;;;6.72;5.97;;;13.50;99.90;;;;;;7329785;32;20103;-57
2023/05/10 19:07:10;;;;;;;11.52;5.82;;;13.40;99.90;;;;;;7311793;32;20579;-57
2023/05/10 19:11:11;;;;;;;8.38;6.05;;;13.40;99.90;;;;;;7325423;32;20198;-56
2023/05/10 19:15:13;;;;;;;8.15;6.47;;;13.30;99.90;;;;;;7329131;32;20561;-56
2023/05/10 19:19:15;;;;;;;10.13;6.60;;;13.20;99.90;;;;;;7328134;32;20353;-56
2023/05/10 19:23:17;;;;;;;9.48;5.90;;;13.10;99.90;;;;;;7326151;32;20104;-56
2023/05/10 19:27:18;;;;;;;11.32;6.00;;;13.10;99.90;;;;;;7321528;32;20210;-57
2023/05/10 19:31:20;;;;;;;12.35;5.93;;;13.10;99.90;;;;;;7326729;32;20850;-55
2023/05/10 19:35:22;;;;;;;6.97;5.60;;;13.00;99.90;;;;;;7320229;32;20143;-57
2023/05/10 19:39:24;;;;;;;7.68;6.03;;;13.00;99.90;;;;;;7321543;32;20504;-56
2023/05/10 19:43:29;;;;;;;9.30;6.80;;;12.90;99.90;;;;;;7325386;32;20451;-58
2023/05/10 19:47:35;;;;;;;9.35;6.60;;;12.90;99.90;;;;;;7325750;32;20234;-56
2023/05/10 19:51:36;;;;;;;7.95;6.37;;;12.80;99.90;;;;;;7324750;32;20629;-57
2023/05/10 19:55:39;;;;;;;7.53;6.25;;;12.80;99.90;;;;;;7314414;32;20833;-56
2023/05/10 19:59:40;;;;;;;8.63;6.00;;;12.70;99.90;;;;;;7319844;32;20134;-56
2023/05/10 20:03:43;;;;;;;8.85;6.45;;;12.70;99.90;;;;;;7333240;32;20099;-56
2023/05/10 20:07:45;;;;;;;12.75;7.00;;;12.70;99.90;;;;;;7311601;32;20219;-56
2023/05/10 20:11:47;;;;;;;10.15;7.18;;;12.60;99.90;;;;;;7329908;32;20147;-56
2023/05/10 20:15:49;;;;;;;12.20;7.47;;;12.60;99.90;;;;;;7322055;32;20597;-56
2023/05/10 20:19:51;;;;;;;9.95;8.25;;;12.60;99.90;;;;;;7324457;32;20148;-56
2023/05/10 20:23:52;;;;;;;9.95;7.78;;;12.50;99.90;;;;;;7327603;32;20178;-56
2023/05/10 20:27:54;;;;;;;9.35;8.00;;;12.50;99.90;;;;;;7329019;32;20198;-56
2023/05/10 20:31:56;;;;;;;10.02;7.55;;;12.50;99.90;;;;;;7332626;32;20202;-57
2023/05/10 20:35:57;;;;;;;11.85;8.00;;;12.40;99.90;;;;;;7325712;32;20458;-56
2023/05/10 20:39:59;;;;;;;11.70;7.90;;;12.30;99.90;;;;;;7332829;32;20237;-56
2023/05/10 20:44:01;;;;;;;9.18;7.53;;;12.20;99.90;;;;;;7325748;32;20130;-56